createdAt,value
2023-05-03T00:01:20.958Z,100135.69
2023-05-03T00:03:53.834Z,100143.53
2023-05-03T00:06:21.680Z,100152.97
2023-05-03T00:08:48.978Z,100146.19
2023-05-03T00:11:16.033Z,100137.53
2023-05-03T00:13:43.605Z,100139.25
2023-05-03T00:16:10.351Z,100141.97
2023-05-03T00:18:37.307Z,100136.88
2023-05-03T00:21:04.432Z,100137.78
2023-05-03T00:23:31.397Z,100133.75
2023-05-03T00:25:59.346Z,100129.09
2023-05-03T00:28:26.292Z,100126.63
2023-05-03T00:30:53.780Z,100137.91
2023-05-03T00:33:20.899Z,100135.16
2023-05-03T00:35:47.814Z,100144.72
2023-05-03T00:38:15.486Z,100144.09
2023-05-03T00:40:43.246Z,100140.88
2023-05-03T00:43:35.676Z,100135.59
2023-05-03T00:46:15.987Z,100133.66
2023-05-03T00:49:09.151Z,100127.69
2023-05-03T00:51:36.068Z,100128.53
2023-05-03T00:54:03.149Z,100119.72
2023-05-03T00:56:32.975Z,100119.75
2023-05-03T00:59:06.331Z,100118.81
2023-05-03T01:01:33.138Z,100114.50
2023-05-03T01:04:05.449Z,100118.81
2023-05-03T01:06:48.503Z,100108.31
2023-05-03T01:09:37.720Z,100120.47
2023-05-03T01:12:46.499Z,100119.66
2023-05-03T01:15:25.925Z,100113.66
2023-05-03T01:17:59.847Z,100104.03
2023-05-03T01:20:31.093Z,100103.16
2023-05-03T01:22:58.154Z,100099.72
2023-05-03T01:25:25.319Z,100099.72
2023-05-03T01:27:52.271Z,100101.50
2023-05-03T01:30:25.705Z,100098.06
2023-05-03T01:33:01.506Z,100103.28
2023-05-03T01:35:37.273Z,100096.31
2023-05-03T01:38:05.131Z,100098.06
2023-05-03T01:40:36.814Z,100096.34
2023-05-03T01:43:04.606Z,100093.03
2023-05-03T01:45:31.539Z,100096.63
2023-05-03T01:47:58.491Z,100093.94
2023-05-03T01:50:25.205Z,100098.28
2023-05-03T01:52:55.364Z,100100.00
2023-05-03T01:55:22.129Z,100101.78
2023-05-03T01:57:48.922Z,100093.06
2023-05-03T02:00:16.374Z,100110.53
2023-05-03T02:02:44.202Z,100104.44
2023-05-03T02:05:12.479Z,100112.22
2023-05-03T02:07:39.298Z,100107.03
2023-05-03T02:10:07.107Z,100111.31
2023-05-03T02:12:33.901Z,100107.00
2023-05-03T02:15:00.719Z,100112.41
2023-05-03T02:17:27.800Z,100110.56
2023-05-03T02:19:55.206Z,100106.28
2023-05-03T02:22:21.958Z,100113.22
2023-05-03T02:24:49.036Z,100113.22
2023-05-03T02:27:17.522Z,100116.72
2023-05-03T02:29:44.414Z,100121.97
2023-05-03T02:32:11.728Z,100121.03
2023-05-03T02:34:39.488Z,100127.09
2023-05-03T02:37:07.802Z,100124.56
2023-05-03T02:39:34.567Z,100119.44
2023-05-03T02:42:02.576Z,100128.06
2023-05-03T02:44:30.408Z,100112.47
2023-05-03T02:46:58.739Z,100117.72
2023-05-03T02:49:26.258Z,100120.31
2023-05-03T02:51:56.772Z,100122.09
2023-05-03T02:54:24.389Z,100123.78
2023-05-03T02:56:51.754Z,100120.34
2023-05-03T02:59:18.828Z,100125.56
2023-05-03T03:01:47.120Z,100122.97
2023-05-03T03:04:16.193Z,100116.91
2023-05-03T03:06:43.138Z,100116.00
2023-05-03T03:09:10.040Z,100124.66
2023-05-03T03:11:36.757Z,100126.41
2023-05-03T03:14:03.416Z,100128.16
2023-05-03T03:16:30.624Z,100127.31
2023-05-03T03:18:57.537Z,100126.44
2023-05-03T03:21:24.369Z,100123.81
2023-05-03T03:23:51.429Z,100126.41
2023-05-03T03:26:18.943Z,100131.63
2023-05-03T03:28:46.189Z,100125.53
2023-05-03T03:31:13.904Z,100129.03
2023-05-03T03:33:42.584Z,100126.44
2023-05-03T03:36:14.728Z,100121.22
2023-05-03T03:38:44.955Z,100123.00
2023-05-03T03:41:11.810Z,100129.94
2023-05-03T03:43:38.976Z,100137.75
2023-05-03T03:46:10.452Z,100137.75
2023-05-03T03:48:37.419Z,100136.00
2023-05-03T03:51:04.678Z,100128.19
2023-05-03T03:53:37.632Z,100133.41
2023-05-03T03:57:17.988Z,100134.28
2023-05-03T03:59:45.475Z,100131.66
2023-05-03T04:02:12.356Z,100136.03
2023-05-03T04:04:39.363Z,100137.72
2023-05-03T04:07:06.489Z,100139.47
2023-05-03T04:09:33.772Z,100137.72
2023-05-03T04:12:01.992Z,100139.44
2023-05-03T04:14:28.766Z,100143.78
2023-05-03T04:16:56.043Z,100141.19
2023-05-03T04:19:23.877Z,100143.78
2023-05-03T04:21:50.915Z,100149.88
2023-05-03T04:24:19.883Z,100139.41
2023-05-03T04:26:46.752Z,100138.56
2023-05-03T04:29:20.381Z,100139.44
2023-05-03T04:31:47.872Z,100144.66
2023-05-03T04:34:16.259Z,100145.47
2023-05-03T04:36:47.343Z,100147.22
2023-05-03T04:39:17.331Z,100153.25
2023-05-03T04:41:46.907Z,100151.53
2023-05-03T04:44:14.399Z,100152.34
2023-05-03T04:46:43.512Z,100151.50
2023-05-03T04:49:10.489Z,100153.25
2023-05-03T04:51:37.129Z,100158.44
2023-05-03T04:54:03.967Z,100159.19
2023-05-03T04:56:31.520Z,100155.69
2023-05-03T04:59:08.844Z,100156.78
2023-05-03T05:01:36.224Z,100153.88
2023-05-03T05:04:04.958Z,100156.28
2023-05-03T05:06:38.523Z,100156.13
2023-05-03T05:09:07.749Z,100159.63
2023-05-03T05:11:34.918Z,100161.09
2023-05-03T05:14:02.224Z,100170.53
2023-05-03T05:16:29.484Z,100168.88
2023-05-03T05:18:56.841Z,100165.38
2023-05-03T05:21:27.292Z,100169.44
2023-05-03T05:23:55.841Z,100172.94
2023-05-03T05:26:23.794Z,100174.84
2023-05-03T05:28:53.410Z,100170.47
2023-05-03T05:31:21.190Z,100167.94
2023-05-03T05:33:50.675Z,100171.13
2023-05-03T05:36:21.230Z,100172.69
2023-05-03T05:38:50.696Z,100175.97
2023-05-03T05:41:18.666Z,100173.16
2023-05-03T05:43:46.889Z,100173.22
2023-05-03T05:46:15.057Z,100174.41
2023-05-03T05:48:43.164Z,100170.31
2023-05-03T05:51:12.477Z,100173.25
2023-05-03T05:53:40.827Z,100182.47
2023-05-03T05:56:09.441Z,100179.13
2023-05-03T05:58:39.848Z,100171.44
2023-05-03T06:02:03.530Z,100169.47
2023-05-03T06:04:31.109Z,100166.69
2023-05-03T06:07:00.333Z,100162.50
2023-05-03T06:09:28.401Z,100154.44
2023-05-03T06:12:01.526Z,100162.66
2023-05-03T06:14:31.959Z,100166.59
2023-05-03T06:17:01.384Z,100152.44
2023-05-03T06:19:31.419Z,100151.72
2023-05-03T06:22:00.026Z,100154.16
2023-05-03T06:24:31.405Z,100150.84
2023-05-03T06:27:00.337Z,100142.09
2023-05-03T06:29:29.839Z,100141.44
2023-05-03T06:31:58.262Z,100148.13
2023-05-03T06:34:27.152Z,100150.38
2023-05-03T06:36:56.419Z,100147.16
2023-05-03T06:39:33.183Z,100155.19
2023-05-03T06:42:02.807Z,100145.13
2023-05-03T06:44:38.703Z,100147.78
2023-05-03T06:51:06.891Z,100153.22
2023-05-03T06:53:35.565Z,100147.28
2023-05-03T06:56:04.378Z,100137.09
2023-05-03T06:58:37.595Z,100142.41
2023-05-03T07:01:06.061Z,100141.59
2023-05-03T07:03:34.009Z,100135.06
2023-05-03T07:06:01.740Z,100133.00
2023-05-03T07:08:29.737Z,100134.47
2023-05-03T07:10:57.758Z,100131.66
2023-05-03T07:13:25.280Z,100127.06
2023-05-03T07:15:54.149Z,100124.88
2023-05-03T07:18:22.375Z,100126.91
2023-05-03T07:20:50.100Z,100133.84
2023-05-03T07:23:20.043Z,100128.69
2023-05-03T07:25:52.172Z,100125.91
2023-05-03T07:28:20.224Z,100112.53
2023-05-03T15:29:24.790Z,99777.81
2023-05-03T15:31:51.686Z,99769.25
2023-05-03T15:34:18.460Z,99772.09
2023-05-03T15:36:45.112Z,99771.25
2023-05-03T15:39:13.065Z,99774.25
2023-05-03T15:41:39.970Z,99769.78
2023-05-03T15:44:08.303Z,99768.34
2023-05-03T15:46:35.223Z,99755.53
2023-05-03T15:49:02.281Z,99754.59
2023-05-03T15:51:29.731Z,99760.41
2023-05-03T15:53:56.575Z,99767.03
2023-05-03T15:56:26.773Z,99773.22
2023-05-03T15:58:54.191Z,99765.34
2023-05-03T16:01:21.067Z,99763.41
2023-05-03T16:03:48.111Z,99761.34
2023-05-03T16:06:20.715Z,99759.97
2023-05-03T16:08:47.672Z,99763.06
2023-05-03T16:11:15.129Z,99764.47
2023-05-03T16:13:41.953Z,99757.41
2023-05-03T16:16:08.989Z,99764.25
2023-05-03T16:18:35.860Z,99761.88
2023-05-03T16:21:05.218Z,99760.03
2023-05-03T16:23:32.124Z,99766.72
2023-05-03T16:25:58.929Z,99765.44
2023-05-03T16:28:26.320Z,99757.50
2023-05-03T16:30:56.053Z,99762.78
2023-05-03T16:33:23.071Z,99763.78
2023-05-03T16:35:50.196Z,99760.47
2023-05-03T16:38:17.036Z,99751.13
2023-05-03T16:40:44.019Z,99748.16
2023-05-03T16:43:11.028Z,99753.63
2023-05-03T16:45:38.003Z,99750.38
2023-05-03T16:48:07.378Z,99749.56
2023-05-03T16:50:37.303Z,99747.19
2023-05-03T16:53:04.268Z,99752.97
2023-05-03T16:55:31.076Z,99757.75
2023-05-03T16:57:58.223Z,99754.00
2023-05-03T17:00:25.156Z,99747.13
2023-05-03T17:02:52.164Z,99747.69
2023-05-03T17:09:16.132Z,99751.72
2023-05-03T17:11:47.425Z,99752.63
2023-05-03T17:14:14.304Z,99755.69
2023-05-03T17:16:42.356Z,99755.97
2023-05-03T17:19:09.617Z,99758.00
2023-05-03T17:21:36.565Z,99751.97
2023-05-03T17:24:03.568Z,99762.28
2023-05-03T17:26:31.825Z,99756.78
2023-05-03T17:29:01.158Z,99759.94
2023-05-03T17:31:28.082Z,99757.38
2023-05-03T17:33:55.129Z,99753.56
2023-05-03T17:36:22.596Z,99757.28
2023-05-03T17:38:49.923Z,99754.69
2023-05-03T17:41:18.317Z,99759.78
2023-05-03T17:43:45.340Z,99763.94
2023-05-03T17:46:14.874Z,99764.63
2023-05-03T17:48:47.829Z,99771.00
2023-05-03T17:51:15.269Z,99765.06
2023-05-03T17:53:43.242Z,99772.66
2023-05-03T17:56:18.077Z,99767.16
2023-05-03T17:58:46.905Z,99773.84
2023-05-03T18:01:15.800Z,99770.56
2023-05-03T18:03:43.105Z,99780.66
2023-05-03T18:06:12.460Z,99772.81
2023-05-03T18:08:39.598Z,99779.50
2023-05-03T18:11:06.465Z,99779.97
2023-05-03T18:13:33.555Z,99781.16
2023-05-03T18:16:01.110Z,99784.19
2023-05-03T18:18:28.063Z,99782.00
2023-05-03T18:21:02.425Z,99781.75
2023-05-03T18:23:30.520Z,99790.47
2023-05-03T18:25:57.398Z,99790.81
2023-05-03T18:28:24.224Z,99794.19
2023-05-03T18:31:01.263Z,99798.28
2023-05-03T18:33:28.128Z,99786.44
2023-05-03T18:35:57.832Z,99786.72
2023-05-03T18:38:24.887Z,99786.38
2023-05-03T18:40:51.981Z,99780.44
2023-05-03T18:43:19.516Z,99789.00
2023-05-03T18:46:18.900Z,99792.75
2023-05-03T18:49:04.152Z,99791.69
2023-05-03T18:51:32.684Z,99796.22
2023-05-03T18:54:01.027Z,99791.97
2023-05-03T18:56:30.332Z,99793.13
2023-05-03T18:58:57.202Z,99794.44
2023-05-03T19:01:26.867Z,99797.41
2023-05-03T19:03:56.452Z,99803.69
2023-05-03T19:06:29.692Z,99808.63
2023-05-03T19:08:56.629Z,99812.31
2023-05-03T19:11:27.027Z,99813.09
2023-05-03T19:13:54.026Z,99816.97
2023-05-03T19:16:21.049Z,99814.47
2023-05-03T19:18:48.267Z,99818.63
2023-05-03T19:21:17.599Z,99825.22
2023-05-03T19:23:45.054Z,99822.88
2023-05-03T19:26:11.968Z,99828.44
2023-05-03T19:28:38.904Z,99832.97
2023-05-03T19:31:06.265Z,99827.72
2023-05-03T19:33:33.979Z,99832.88
2023-05-03T19:36:06.645Z,99828.69
2023-05-03T19:38:36.861Z,99829.75
2023-05-03T19:41:12.489Z,99832.03
2023-05-03T19:43:40.689Z,99825.06
2023-05-03T19:46:07.834Z,99821.75
2023-05-03T19:48:35.095Z,99829.53
2023-05-03T19:51:02.665Z,99825.31
2023-05-03T19:53:29.532Z,99822.88
2023-05-03T19:55:58.159Z,99820.06
2023-05-03T19:58:25.763Z,99827.25
2023-05-03T20:00:53.223Z,99824.78
2023-05-03T20:03:22.723Z,99833.22
2023-05-03T20:05:49.993Z,99838.00
2023-05-03T20:08:16.880Z,99836.56
2023-05-03T20:10:46.204Z,99830.38
2023-05-03T20:13:13.540Z,99834.81
2023-05-03T20:15:42.367Z,99826.06
2023-05-03T20:18:09.459Z,99831.31
2023-05-03T20:20:36.647Z,99827.31
2023-05-03T20:23:03.389Z,99828.44
2023-05-03T20:25:30.229Z,99831.06
2023-05-03T20:28:11.680Z,99837.88
2023-05-03T20:30:38.804Z,99830.84
2023-05-03T20:33:05.687Z,99829.03
2023-05-03T20:35:32.502Z,99827.50
2023-05-03T20:37:59.274Z,99826.94
2023-05-03T20:40:26.082Z,99822.47
2023-05-03T20:42:52.846Z,99823.47
2023-05-03T20:45:19.704Z,99819.47
2023-05-03T20:47:46.528Z,99817.47
2023-05-03T20:50:13.459Z,99819.13
2023-05-03T20:52:40.296Z,99813.38
2023-05-03T20:55:07.434Z,99819.31
2023-05-03T20:57:34.365Z,99821.06
2023-05-03T21:03:58.799Z,99822.16
2023-05-03T21:06:25.564Z,99810.97
2023-05-03T21:08:52.896Z,99812.25
2023-05-03T21:11:19.778Z,99807.53
2023-05-03T21:13:46.454Z,99809.03
2023-05-03T21:16:15.485Z,99814.09
2023-05-03T21:18:42.457Z,99817.00
2023-05-03T21:21:09.215Z,99817.19
2023-05-03T21:23:35.931Z,99823.34
2023-05-03T21:26:02.835Z,99821.91
2023-05-03T21:28:31.746Z,99826.97
2023-05-03T21:30:58.844Z,99825.25
2023-05-03T21:33:25.584Z,99822.44
2023-05-03T21:35:52.325Z,99831.56
2023-05-03T21:38:19.217Z,99830.13
2023-05-03T21:40:47.407Z,99825.88
2023-05-03T21:43:16.600Z,99823.78
2023-05-03T21:45:44.264Z,99821.53
2023-05-03T21:48:11.018Z,99826.00
2023-05-03T21:50:41.064Z,99822.81
2023-05-03T21:53:08.021Z,99819.25
2023-05-03T21:55:34.833Z,99828.06
2023-05-03T21:58:01.621Z,99827.25
2023-05-03T22:00:29.044Z,99823.88
2023-05-03T22:02:56.009Z,99831.06
2023-05-03T22:05:25.394Z,99824.69
2023-05-03T22:07:52.201Z,99823.28
2023-05-03T22:10:19.124Z,99820.47
2023-05-03T22:12:46.261Z,99817.81
2023-05-03T22:15:16.322Z,99824.19
2023-05-03T22:17:43.401Z,99826.22
2023-05-03T22:20:10.827Z,99825.78
2023-05-03T22:22:37.848Z,99829.31
2023-05-03T22:25:05.158Z,99822.38
2023-05-03T22:27:31.837Z,99821.22
2023-05-03T22:29:58.620Z,99821.66
2023-05-03T22:32:25.526Z,99816.38
2023-05-03T22:34:52.401Z,99815.56
2023-05-03T22:37:19.481Z,99819.94
2023-05-03T22:39:46.304Z,99806.81
2023-05-03T22:42:13.283Z,99809.28
2023-05-03T22:44:40.183Z,99812.81
2023-05-03T22:47:07.006Z,99810.38
2023-05-03T22:49:33.773Z,99807.31
2023-05-03T22:52:00.588Z,99804.13
2023-05-03T22:54:27.432Z,99800.56
2023-05-03T22:56:54.813Z,99804.31
2023-05-03T22:59:21.721Z,99802.41
2023-05-03T23:01:49.663Z,99800.69
2023-05-03T23:04:16.842Z,99796.25
2023-05-03T23:06:44.700Z,99799.13
2023-05-03T23:09:11.837Z,99798.88
2023-05-03T23:11:38.677Z,99791.72
2023-05-03T23:14:06.245Z,99797.88
2023-05-03T23:16:33.118Z,99787.22
2023-05-03T23:19:26.778Z,99789.06
2023-05-03T23:21:53.745Z,99791.84
2023-05-03T23:24:20.572Z,99786.75
2023-05-03T23:26:47.441Z,99779.66
2023-05-03T23:29:14.526Z,99770.28
2023-05-03T23:31:41.889Z,99776.00
2023-05-03T23:34:09.125Z,99777.03
2023-05-03T23:36:35.933Z,99782.34
2023-05-03T23:39:05.897Z,99779.81
2023-05-03T23:41:34.076Z,99777.47
2023-05-03T23:44:01.094Z,99777.09
2023-05-03T23:46:28.062Z,99784.09
2023-05-03T23:50:08.617Z,99782.28
2023-05-03T23:52:35.477Z,99775.28
2023-05-03T23:55:02.480Z,99773.69
2023-05-03T23:57:29.343Z,99772.84
2023-05-03T23:59:56.277Z,99774.78
